createdAt,value
2019-06-04T00:00:11.978Z,1002.88
2019-06-04T00:01:21.797Z,1002.89
2019-06-04T00:02:12.035Z,1002.87
2019-06-04T00:03:15.092Z,1002.89
2019-06-04T00:04:18.373Z,1002.88
2019-06-04T00:05:18.383Z,1002.86
2019-06-04T00:06:12.142Z,1002.86
2019-06-04T00:07:12.166Z,1002.86
2019-06-04T00:08:12.195Z,1002.84
2019-06-04T00:09:12.221Z,1002.81
2019-06-04T00:10:12.248Z,1002.82
2019-06-04T00:11:12.278Z,1002.86
2019-06-04T00:12:12.303Z,1002.8
2019-06-04T00:13:12.329Z,1002.85
2019-06-04T00:14:12.355Z,1002.84
2019-06-04T00:15:12.384Z,1002.84
2019-06-04T00:16:12.412Z,1002.85
2019-06-04T00:17:12.437Z,1002.81
2019-06-04T00:18:12.464Z,1002.83
2019-06-04T00:19:12.504Z,1002.77
2019-06-04T00:20:12.524Z,1002.77
2019-06-04T00:21:12.579Z,1002.74
2019-06-04T00:22:12.570Z,1002.77
2019-06-04T00:23:12.623Z,1002.73
2019-06-04T00:24:12.635Z,1002.73
2019-06-04T00:25:12.652Z,1002.75
2019-06-04T00:26:12.696Z,1002.78
2019-06-04T00:27:12.704Z,1002.77
2019-06-04T00:28:12.730Z,1002.76
2019-06-04T00:29:12.759Z,1002.77
2019-06-04T00:30:12.786Z,1002.74
2019-06-04T00:31:12.816Z,1002.73
2019-06-04T00:32:12.839Z,1002.7
2019-06-04T00:33:12.864Z,1002.69
2019-06-04T00:34:12.893Z,1002.64
2019-06-04T00:35:12.920Z,1002.63
2019-06-04T00:36:12.944Z,1002.59
2019-06-04T00:37:12.971Z,1002.65
2019-06-04T00:38:13.000Z,1002.65
2019-06-04T00:39:13.024Z,1002.64
2019-06-04T00:40:13.051Z,1002.61
2019-06-04T00:41:13.078Z,1002.6
2019-06-04T00:42:13.109Z,1002.6
2019-06-04T00:43:13.130Z,1002.59
2019-06-04T00:44:13.158Z,1002.57
2019-06-04T00:45:13.184Z,1002.55
2019-06-04T00:46:13.215Z,1002.59
2019-06-04T00:47:13.237Z,1002.58
2019-06-04T00:48:13.264Z,1002.59
2019-06-04T00:49:13.290Z,1002.56
2019-06-04T00:50:13.316Z,1002.58
2019-06-04T00:51:13.345Z,1002.56
2019-06-04T00:52:13.370Z,1002.54
2019-06-04T00:53:13.402Z,1002.5
2019-06-04T00:54:13.422Z,1002.51
2019-06-04T00:55:13.449Z,1002.53
2019-06-04T00:56:13.476Z,1002.49
2019-06-04T00:57:13.510Z,1002.48
2019-06-04T00:58:13.527Z,1002.46
2019-06-04T00:59:13.555Z,1002.47
2019-06-04T01:00:13.581Z,1002.47
2019-06-04T01:01:13.610Z,1002.49
2019-06-04T01:02:13.633Z,1002.48
2019-06-04T01:03:13.659Z,1002.47
2019-06-04T01:04:15.249Z,1002.48
2019-06-04T01:05:13.712Z,1002.49
2019-06-04T01:06:13.739Z,1002.49
2019-06-04T01:07:13.765Z,1002.47
2019-06-04T01:08:20.800Z,1002.45
2019-06-04T01:09:13.820Z,1002.43
2019-06-04T01:10:13.846Z,1002.44
2019-06-04T01:11:13.886Z,1002.43
2019-06-04T01:12:13.896Z,1002.43
2019-06-04T01:13:13.923Z,1002.37
2019-06-04T01:14:13.948Z,1002.4
2019-06-04T01:15:24.913Z,1002.36
2019-06-04T01:16:14.001Z,1002.39
2019-06-04T01:17:14.028Z,1002.35
2019-06-04T01:18:14.054Z,1002.36
2019-06-04T01:19:14.083Z,1002.33
2019-06-04T01:20:14.107Z,1002.35
2019-06-04T01:21:14.134Z,1002.34
2019-06-04T01:22:14.159Z,1002.32
2019-06-04T01:23:14.191Z,1002.3
2019-06-04T01:24:14.211Z,1002.33
2019-06-04T01:25:14.237Z,1002.33
2019-06-04T01:26:14.264Z,1002.28
2019-06-04T01:27:14.289Z,1002.29
2019-06-04T01:28:14.316Z,1002.31
2019-06-04T01:29:14.344Z,1002.32
2019-06-04T01:30:14.371Z,1002.3
2019-06-04T01:31:14.393Z,1002.28
2019-06-04T01:32:20.906Z,1002.28
2019-06-04T01:33:14.446Z,1002.25
2019-06-04T01:34:14.472Z,1002.24
2019-06-04T01:35:14.498Z,1002.23
2019-06-04T01:36:14.525Z,1002.19
2019-06-04T01:37:14.550Z,1002.18
2019-06-04T01:38:14.582Z,1002.17
2019-06-04T01:39:14.607Z,1002.16
2019-06-04T01:40:14.628Z,1002.17
2019-06-04T01:41:14.663Z,1002.2
2019-06-04T01:42:14.684Z,1002.19
2019-06-04T01:43:14.722Z,1002.17
2019-06-04T01:44:14.731Z,1002.18
2019-06-04T01:45:14.763Z,1002.17
2019-06-04T01:46:14.791Z,1002.16
2019-06-04T01:47:14.816Z,1002.16
2019-06-04T01:48:14.836Z,1002.16
2019-06-04T01:49:14.870Z,1002.15
2019-06-04T01:50:14.887Z,1002.12
2019-06-04T01:51:14.918Z,1002.13
2019-06-04T01:52:14.943Z,1002.08
2019-06-04T01:53:14.965Z,1002.14
2019-06-04T01:54:14.995Z,1002.11
2019-06-04T01:55:15.022Z,1002.07
2019-06-04T01:56:15.046Z,1002.06
2019-06-04T01:57:15.067Z,1002.11
2019-06-04T01:58:15.093Z,1002.07
2019-06-04T01:59:15.119Z,1002.02
2019-06-04T02:00:28.178Z,1002.05
2019-06-04T02:01:15.177Z,1002.01
2019-06-04T02:02:32.097Z,1002.03
2019-06-04T02:03:15.225Z,1002.04
2019-06-04T02:04:15.252Z,1002.07
2019-06-04T02:05:15.279Z,1002.03
2019-06-04T02:06:15.304Z,1002.03
2019-06-04T02:07:15.330Z,1002
2019-06-04T02:08:15.694Z,1001.98
2019-06-04T02:09:15.387Z,1002.01
2019-06-04T02:10:15.701Z,1002
2019-06-04T02:11:15.429Z,1002.01
2019-06-04T02:12:17.869Z,1002
2019-06-04T02:13:15.484Z,1002.01
2019-06-04T02:14:15.509Z,1002
2019-06-04T02:15:15.531Z,1002.01
2019-06-04T02:16:21.975Z,1001.98
2019-06-04T02:17:15.585Z,1002.01
2019-06-04T02:18:15.618Z,1002.02
2019-06-04T02:19:15.632Z,1002.02
2019-06-04T02:20:15.658Z,1002.04
2019-06-04T02:21:15.690Z,1002.02
2019-06-04T02:22:15.714Z,1002
2019-06-04T02:23:15.734Z,1002.02
2019-06-04T02:24:15.765Z,1001.96
2019-06-04T02:25:15.800Z,1001.97
2019-06-04T02:26:15.811Z,1001.99
2019-06-04T02:27:15.839Z,1001.99
2019-06-04T02:28:15.870Z,1001.97
2019-06-04T02:29:15.890Z,1001.97
2019-06-04T02:30:17.689Z,1001.96
2019-06-04T02:31:15.944Z,1001.97
2019-06-04T02:32:15.969Z,1001.94
2019-06-04T02:33:22.367Z,1001.95
2019-06-04T02:34:16.019Z,1001.96
2019-06-04T02:35:16.040Z,1001.91
2019-06-04T02:36:16.070Z,1001.88
2019-06-04T02:37:16.095Z,1001.92
2019-06-04T02:38:17.275Z,1001.89
2019-06-04T02:39:16.142Z,1001.87
2019-06-04T02:40:16.173Z,1001.85
2019-06-04T02:41:16.198Z,1001.85
2019-06-04T02:42:17.291Z,1001.89
2019-06-04T02:43:16.244Z,1001.88
2019-06-04T02:44:17.653Z,1001.89
2019-06-04T02:45:16.293Z,1001.91
2019-06-04T02:46:16.368Z,1001.89
2019-06-04T02:47:16.343Z,1001.88
2019-06-04T02:48:16.374Z,1001.88
2019-06-04T02:49:16.509Z,1001.86
2019-06-04T02:50:16.425Z,1001.86
2019-06-04T02:51:17.344Z,1001.85
2019-06-04T02:52:17.361Z,1001.87
2019-06-04T02:53:17.708Z,1001.86
2019-06-04T02:54:17.782Z,1001.84
2019-06-04T02:55:17.770Z,1001.85
2019-06-04T02:56:16.974Z,1001.79
2019-06-04T02:57:17.833Z,1001.82
2019-06-04T02:58:16.624Z,1001.82
2019-06-04T02:59:16.647Z,1001.8
2019-06-04T03:00:16.672Z,1001.81
2019-06-04T03:01:16.852Z,1001.81
2019-06-04T03:02:16.722Z,1001.81
2019-06-04T03:03:27.530Z,1001.83
2019-06-04T03:04:16.811Z,1001.81
2019-06-04T03:05:16.869Z,1001.78
2019-06-04T03:06:17.235Z,1001.79
2019-06-04T03:07:17.358Z,1001.76
2019-06-04T03:08:17.197Z,1001.78
2019-06-04T03:09:17.352Z,1001.82
2019-06-04T03:10:17.327Z,1001.79
2019-06-04T03:11:18.291Z,1001.84
2019-06-04T03:12:17.479Z,1001.84
2019-06-04T03:13:17.765Z,1001.86
2019-06-04T03:14:17.710Z,1001.89
2019-06-04T03:15:17.848Z,1001.92
2019-06-04T03:16:18.123Z,1001.91
2019-06-04T03:17:19.027Z,1001.96
2019-06-04T03:18:18.267Z,1002.03
2019-06-04T03:19:19.495Z,1001.95
2019-06-04T03:20:17.173Z,1001.98
2019-06-04T03:21:17.507Z,1001.97
2019-06-04T03:22:17.232Z,1001.93
2019-06-04T03:23:17.270Z,1001.93
2019-06-04T03:24:17.275Z,1001.95
2019-06-04T03:25:17.299Z,1001.96
2019-06-04T03:26:17.650Z,1002
2019-06-04T03:27:17.418Z,1002.01
2019-06-04T03:28:17.665Z,1001.99
2019-06-04T03:29:17.675Z,1002
2019-06-04T03:30:21.239Z,1002.02
2019-06-04T03:31:18.439Z,1002.01
2019-06-04T03:32:19.804Z,1002.03
2019-06-04T03:33:18.689Z,1002.03
2019-06-04T03:34:19.956Z,1002.04
2019-06-04T03:35:18.429Z,1002.06
2019-06-04T03:36:18.743Z,1002.03
2019-06-04T03:37:18.796Z,1002.02
2019-06-04T03:38:17.626Z,1002.04
2019-06-04T03:39:18.081Z,1002.01
2019-06-04T03:40:17.722Z,1002.01
2019-06-04T03:41:17.698Z,1002.02
2019-06-04T03:42:17.731Z,1002.01
2019-06-04T03:43:18.099Z,1002.03
2019-06-04T03:44:17.820Z,1002
2019-06-04T03:45:17.851Z,1002.06
2019-06-04T03:46:18.063Z,1002.01
2019-06-04T03:47:17.888Z,1002
2019-06-04T03:48:18.313Z,1001.99
2019-06-04T03:49:18.223Z,1001.96
2019-06-04T03:50:19.300Z,1001.94
2019-06-04T03:51:18.711Z,1002
2019-06-04T03:52:18.613Z,1001.98
2019-06-04T03:53:18.729Z,1001.97
2019-06-04T03:54:18.748Z,1002.03
2019-06-04T03:55:18.908Z,1001.98
2019-06-04T03:56:19.173Z,1002.04
2019-06-04T03:57:18.151Z,1002.04
2019-06-04T03:58:19.084Z,1002.05
2019-06-04T03:59:18.163Z,1002.03
2019-06-04T04:00:23.342Z,1002.03
2019-06-04T04:01:18.335Z,1002.03
2019-06-04T04:02:18.592Z,1002.05
2019-06-04T04:03:20.028Z,1002.04
2019-06-04T04:04:18.509Z,1002.04
2019-06-04T04:05:18.344Z,1002.04
2019-06-04T04:06:18.748Z,1002.06
2019-06-04T04:07:18.451Z,1002.06
2019-06-04T04:08:19.827Z,1002.04
2019-06-04T04:09:18.538Z,1002.03
2019-06-04T04:10:18.615Z,1002.06
2019-06-04T04:11:18.733Z,1002.07
2019-06-04T04:12:18.786Z,1002.06
2019-06-04T04:13:18.673Z,1002.08
2019-06-04T04:14:18.949Z,1002.08
2019-06-04T04:15:18.673Z,1002.08
2019-06-04T04:16:18.927Z,1002.07
2019-06-04T04:17:18.874Z,1002.08
2019-06-04T04:18:19.385Z,1002.05
2019-06-04T04:19:18.992Z,1002.08
2019-06-04T04:20:19.024Z,1002.05
2019-06-04T04:21:19.507Z,1002.06
2019-06-04T04:22:18.714Z,1002.03
2019-06-04T04:23:19.277Z,1002.03
2019-06-04T04:24:18.791Z,1002.01
2019-06-04T04:25:20.434Z,1002.03
2019-06-04T04:26:18.813Z,1002.04
2019-06-04T04:27:19.563Z,1002.07
2019-06-04T04:28:18.907Z,1002.07
2019-06-04T04:29:19.510Z,1002.07
2019-06-04T04:30:19.043Z,1002.07
2019-06-04T04:31:19.799Z,1002.14
2019-06-04T04:32:19.009Z,1002.12
2019-06-04T04:33:19.790Z,1002.12
2019-06-04T04:34:27.995Z,1002.12
2019-06-04T04:35:19.215Z,1002.15
2019-06-04T04:36:19.261Z,1002.09
2019-06-04T04:37:19.626Z,1002.08
2019-06-04T04:38:20.185Z,1002.12
2019-06-04T04:39:19.468Z,1002.12
2019-06-04T04:40:19.977Z,1002.06
2019-06-04T04:41:19.757Z,1002.11
2019-06-04T04:42:19.865Z,1002.11
2019-06-04T04:43:20.026Z,1002.1
2019-06-04T04:44:20.198Z,1002.08
2019-06-04T04:45:20.357Z,1002.1
2019-06-04T04:46:19.908Z,1002.09
2019-06-04T04:47:20.483Z,1002.1
2019-06-04T04:48:19.352Z,1002.1
2019-06-04T04:49:20.308Z,1002.07
2019-06-04T04:50:19.403Z,1002.05
2019-06-04T04:51:19.426Z,1002.03
2019-06-04T04:52:19.454Z,1002.05
2019-06-04T04:53:19.610Z,1002.03
2019-06-04T04:54:19.495Z,1002.03
2019-06-04T04:55:19.522Z,1002.02
2019-06-04T04:56:19.549Z,1002.05
2019-06-04T04:57:19.877Z,1002.08
2019-06-04T04:58:21.133Z,1002.07
2019-06-04T04:59:19.655Z,1002.11
2019-06-04T05:00:21.779Z,1002.11
2019-06-04T05:01:19.809Z,1002.13
2019-06-04T05:02:19.774Z,1002.18
2019-06-04T05:03:20.132Z,1002.17
2019-06-04T05:04:19.887Z,1002.19
2019-06-04T05:05:19.896Z,1002.21
2019-06-04T05:06:20.851Z,1002.2
2019-06-04T05:07:20.356Z,1002.17
2019-06-04T05:08:20.095Z,1002.18
2019-06-04T05:09:20.034Z,1002.17
2019-06-04T05:10:20.346Z,1002.14
2019-06-04T05:11:20.211Z,1002.14
2019-06-04T05:12:20.351Z,1002.13
2019-06-04T05:13:20.508Z,1002.13
2019-06-04T05:14:20.701Z,1002.13
2019-06-04T05:15:20.678Z,1002.1
2019-06-04T05:16:21.036Z,1002.09
2019-06-04T05:17:21.360Z,1002.11
2019-06-04T05:18:21.145Z,1002.16
2019-06-04T05:19:21.213Z,1002.16
2019-06-04T05:20:21.306Z,1002.17
2019-06-04T05:21:21.348Z,1002.21
2019-06-04T05:22:21.342Z,1002.19
2019-06-04T05:23:21.472Z,1002.17
2019-06-04T05:24:21.642Z,1002.15
2019-06-04T05:25:21.402Z,1002.19
2019-06-04T05:26:21.542Z,1002.18
2019-06-04T05:27:21.549Z,1002.18
2019-06-04T05:28:21.417Z,1002.15
2019-06-04T05:29:21.448Z,1002.17
2019-06-04T05:30:26.670Z,1002.17
2019-06-04T05:31:21.525Z,1002.17
2019-06-04T05:32:21.763Z,1002.13
2019-06-04T05:33:21.859Z,1002.15
2019-06-04T05:34:20.472Z,1002.15
2019-06-04T05:35:20.496Z,1002.14
2019-06-04T05:36:22.904Z,1002.15
2019-06-04T05:37:20.551Z,1002.16
2019-06-04T05:38:21.992Z,1002.15
2019-06-04T05:39:21.937Z,1002.18
2019-06-04T05:40:20.619Z,1002.12
2019-06-04T05:41:20.643Z,1002.17
2019-06-04T05:42:20.674Z,1002.2
2019-06-04T05:43:20.691Z,1002.19
2019-06-04T05:44:20.721Z,1002.21
2019-06-04T05:45:20.751Z,1002.22
2019-06-04T05:46:20.763Z,1002.23
2019-06-04T05:47:20.792Z,1002.23
2019-06-04T05:48:20.819Z,1002.22
2019-06-04T05:49:20.844Z,1002.2
2019-06-04T05:50:20.865Z,1002.27
2019-06-04T05:51:20.889Z,1002.2
2019-06-04T05:52:20.911Z,1002.22
2019-06-04T05:53:22.707Z,1002.21
2019-06-04T05:54:20.964Z,1002.24
2019-06-04T05:55:20.983Z,1002.23
2019-06-04T05:56:21.010Z,1002.21
2019-06-04T05:57:21.040Z,1002.23
2019-06-04T05:58:21.062Z,1002.28
2019-06-04T05:59:21.082Z,1002.26
2019-06-04T06:00:22.114Z,1002.25
2019-06-04T06:01:21.132Z,1002.28
2019-06-04T06:02:21.161Z,1002.29
2019-06-04T06:03:21.185Z,1002.27
2019-06-04T06:04:21.205Z,1002.27
2019-06-04T06:05:24.949Z,1002.25
2019-06-04T06:06:21.261Z,1002.28
2019-06-04T06:07:21.278Z,1002.26
2019-06-04T06:08:21.302Z,1002.28
2019-06-04T06:09:21.341Z,1002.3
2019-06-04T06:10:21.357Z,1002.31
2019-06-04T06:11:21.380Z,1002.28
2019-06-04T06:12:21.401Z,1002.29
2019-06-04T06:13:21.432Z,1002.25
2019-06-04T06:14:21.451Z,1002.24
2019-06-04T06:15:21.479Z,1002.31
2019-06-04T06:16:21.498Z,1002.3
2019-06-04T06:17:21.541Z,1002.28
2019-06-04T06:18:21.555Z,1002.32
2019-06-04T06:19:21.618Z,1002.28
2019-06-04T06:20:21.604Z,1002.28
2019-06-04T06:21:21.627Z,1002.28
2019-06-04T06:22:21.653Z,1002.3
2019-06-04T06:23:21.676Z,1002.28
2019-06-04T06:24:21.699Z,1002.28
2019-06-04T06:25:21.722Z,1002.26
2019-06-04T06:26:21.745Z,1002.28
2019-06-04T06:27:21.773Z,1002.26
2019-06-04T06:28:21.794Z,1002.24
2019-06-04T06:29:21.823Z,1002.22
2019-06-04T06:30:21.848Z,1002.23
2019-06-04T06:31:21.890Z,1002.23
2019-06-04T06:32:21.900Z,1002.23
2019-06-04T06:33:21.921Z,1002.26
2019-06-04T06:34:21.941Z,1002.24
2019-06-04T06:35:21.964Z,1002.22
2019-06-04T06:36:21.990Z,1002.23
2019-06-04T06:37:22.014Z,1002.21
2019-06-04T06:38:22.044Z,1002.21
2019-06-04T06:39:22.062Z,1002.19
2019-06-04T06:40:22.093Z,1002.19
2019-06-04T06:41:22.118Z,1002.19
2019-06-04T06:42:22.144Z,1002.13
2019-06-04T06:43:22.162Z,1002.15
2019-06-04T06:44:22.190Z,1002.14
2019-06-04T06:45:22.216Z,1002.14
2019-06-04T06:46:22.241Z,1002.15
2019-06-04T06:47:22.263Z,1002.12
2019-06-04T06:48:22.412Z,1002.14
2019-06-04T06:49:22.314Z,1002.15
2019-06-04T06:50:22.336Z,1002.16
2019-06-04T06:51:22.369Z,1002.17
2019-06-04T06:52:22.383Z,1002.16
2019-06-04T06:53:22.407Z,1002.16
2019-06-04T06:54:22.439Z,1002.15
2019-06-04T06:55:22.463Z,1002.19
2019-06-04T06:56:22.486Z,1002.15
2019-06-04T06:57:22.514Z,1002.11
2019-06-04T06:58:22.537Z,1002.08
2019-06-04T06:59:22.565Z,1002.08
2019-06-04T07:00:22.588Z,1002.07
2019-06-04T07:01:22.611Z,1002.07
2019-06-04T07:02:24.686Z,1002.03
2019-06-04T07:03:22.654Z,1002.05
2019-06-04T07:04:22.680Z,1002.07
2019-06-04T07:05:22.714Z,1002.08
2019-06-04T07:06:22.735Z,1002.07
2019-06-04T07:07:22.753Z,1002.08
2019-06-04T07:08:22.778Z,1002.08
2019-06-04T07:09:22.805Z,1002.06
2019-06-04T07:10:22.834Z,1002.06
2019-06-04T07:11:22.871Z,1002.07
2019-06-04T07:12:22.884Z,1002.06
2019-06-04T07:13:22.911Z,1002.06
2019-06-04T07:14:22.936Z,1002.04
2019-06-04T07:15:22.952Z,1002.02
2019-06-04T07:16:22.986Z,1002.01
2019-06-04T07:17:23.020Z,1002.04
2019-06-04T07:18:23.027Z,1002.02
2019-06-04T07:19:23.058Z,1002.05
2019-06-04T07:20:23.077Z,1002.02
2019-06-04T07:21:23.101Z,1002.06
2019-06-04T07:22:23.130Z,1002.03
2019-06-04T07:23:23.156Z,1002.03
2019-06-04T07:24:23.192Z,1002.06
2019-06-04T07:25:23.206Z,1002.03
2019-06-04T07:26:23.232Z,1002.04
2019-06-04T07:27:23.259Z,1002
2019-06-04T07:28:23.339Z,1002.01
2019-06-04T07:29:23.307Z,1001.97
2019-06-04T07:30:27.181Z,1001.97
2019-06-04T07:31:23.357Z,1001.96
2019-06-04T07:32:23.383Z,1001.98
2019-06-04T07:33:23.403Z,1001.95
2019-06-04T07:34:23.430Z,1001.98
2019-06-04T07:35:23.452Z,1001.93
2019-06-04T07:36:27.329Z,1001.96
2019-06-04T07:37:23.502Z,1001.95
2019-06-04T07:38:23.528Z,1001.94
2019-06-04T07:39:23.598Z,1001.95
2019-06-04T07:40:23.585Z,1001.91
2019-06-04T07:41:23.609Z,1001.87
2019-06-04T07:42:23.634Z,1001.95
2019-06-04T07:43:23.653Z,1001.89
2019-06-04T07:44:23.679Z,1001.9
2019-06-04T07:45:23.715Z,1001.88
2019-06-04T07:46:23.736Z,1001.85
2019-06-04T07:47:23.972Z,1001.84
2019-06-04T07:48:33.453Z,1001.85
2019-06-04T07:49:23.812Z,1001.84
2019-06-04T07:50:23.836Z,1001.84
2019-06-04T07:51:23.865Z,1001.85
2019-06-04T07:52:23.887Z,1001.85
2019-06-04T07:53:23.912Z,1001.86
2019-06-04T07:54:23.938Z,1001.84
2019-06-04T07:55:23.971Z,1001.83
2019-06-04T07:56:23.990Z,1001.8
2019-06-04T07:57:24.035Z,1001.77
2019-06-04T07:58:24.039Z,1001.8
2019-06-04T07:59:24.065Z,1001.8
2019-06-04T08:00:24.091Z,1001.78
2019-06-04T08:01:24.547Z,1001.81
2019-06-04T08:02:24.136Z,1001.74
2019-06-04T08:03:24.169Z,1001.74
2019-06-04T08:04:24.191Z,1001.76
2019-06-04T08:05:24.213Z,1001.79
2019-06-04T08:06:41.872Z,1001.8
2019-06-04T08:07:24.272Z,1001.78
2019-06-04T08:08:24.293Z,1001.74
2019-06-04T08:09:24.318Z,1001.78
2019-06-04T08:10:24.345Z,1001.76
2019-06-04T08:11:24.371Z,1001.75
2019-06-04T08:12:24.401Z,1001.72
2019-06-04T08:13:24.439Z,1001.75
2019-06-04T08:14:24.453Z,1001.74
2019-06-04T08:15:24.499Z,1001.74
2019-06-04T08:16:24.500Z,1001.77
2019-06-04T08:17:24.554Z,1001.76
2019-06-04T08:18:24.557Z,1001.76
2019-06-04T08:19:24.587Z,1001.74
2019-06-04T08:20:24.610Z,1001.75
2019-06-04T08:21:41.811Z,1001.77
2019-06-04T08:22:24.661Z,1001.7
2019-06-04T08:23:24.690Z,1001.75
2019-06-04T08:24:24.716Z,1001.71
2019-06-04T08:25:24.744Z,1001.79
2019-06-04T08:26:24.772Z,1001.81
2019-06-04T08:27:24.796Z,1001.8
2019-06-04T08:28:24.821Z,1001.78
2019-06-04T08:29:24.845Z,1001.77
2019-06-04T08:30:24.873Z,1001.82
2019-06-04T08:31:24.903Z,1001.82
2019-06-04T08:32:24.942Z,1001.8
2019-06-04T08:33:24.974Z,1001.82
2019-06-04T08:34:24.991Z,1001.82
2019-06-04T08:35:25.011Z,1001.79
2019-06-04T08:36:25.028Z,1001.8
2019-06-04T08:37:25.055Z,1001.82
2019-06-04T08:38:25.104Z,1001.82
2019-06-04T08:39:25.119Z,1001.79
2019-06-04T08:40:25.144Z,1001.86
2019-06-04T08:41:25.173Z,1001.84
2019-06-04T08:42:25.194Z,1001.82
2019-06-04T08:43:25.865Z,1001.79
2019-06-04T08:44:25.542Z,1001.83
2019-06-04T08:45:25.270Z,1001.78
2019-06-04T08:46:25.340Z,1001.79
2019-06-04T08:47:25.331Z,1001.81
2019-06-04T08:48:25.354Z,1001.79
2019-06-04T08:49:25.418Z,1001.83
2019-06-04T08:50:25.416Z,1001.83
2019-06-04T08:51:25.438Z,1001.82
2019-06-04T08:52:25.461Z,1001.83
2019-06-04T08:53:25.487Z,1001.82
2019-06-04T08:54:25.524Z,1001.8
2019-06-04T08:55:25.552Z,1001.79
2019-06-04T08:56:25.572Z,1001.77
2019-06-04T08:57:25.603Z,1001.79
2019-06-04T08:58:25.626Z,1001.82
2019-06-04T08:59:25.661Z,1001.77
2019-06-04T09:00:25.689Z,1001.76
2019-06-04T09:01:25.709Z,1001.77
2019-06-04T09:02:25.743Z,1001.77
2019-06-04T09:03:25.778Z,1001.78
2019-06-04T09:04:25.796Z,1001.77
2019-06-04T09:05:25.826Z,1001.73
2019-06-04T09:06:25.866Z,1001.73
2019-06-04T09:07:27.823Z,1001.7
2019-06-04T09:08:25.907Z,1001.67
2019-06-04T09:09:25.930Z,1001.69
2019-06-04T09:10:25.976Z,1001.69
2019-06-04T09:11:25.989Z,1001.71
2019-06-04T09:12:26.019Z,1001.7
2019-06-04T09:13:26.047Z,1001.69
2019-06-04T09:14:26.070Z,1001.7
2019-06-04T09:15:26.105Z,1001.71
2019-06-04T09:16:26.132Z,1001.65
2019-06-04T09:17:26.157Z,1001.68
2019-06-04T09:18:26.190Z,1001.67
2019-06-04T09:19:26.215Z,1001.67
2019-06-04T09:20:26.247Z,1001.7
2019-06-04T09:21:26.268Z,1001.69
2019-06-04T09:22:26.301Z,1001.68
2019-06-04T09:23:26.325Z,1001.64
2019-06-04T09:24:26.358Z,1001.67
2019-06-04T09:25:26.386Z,1001.66
2019-06-04T09:26:26.417Z,1001.68
2019-06-04T09:27:26.443Z,1001.65
2019-06-04T09:28:26.473Z,1001.68
2019-06-04T09:29:26.499Z,1001.62
2019-06-04T09:30:26.527Z,1001.61
2019-06-04T09:31:28.146Z,1001.61
2019-06-04T09:32:26.584Z,1001.63
2019-06-04T09:33:26.612Z,1001.59
2019-06-04T09:34:26.640Z,1001.59
2019-06-04T09:35:26.681Z,1001.56
2019-06-04T09:36:26.702Z,1001.61
2019-06-04T09:37:45.874Z,1001.6
2019-06-04T09:38:26.766Z,1001.62
2019-06-04T09:39:26.787Z,1001.6
2019-06-04T09:40:26.821Z,1001.59
2019-06-04T09:41:26.851Z,1001.58
2019-06-04T09:42:26.874Z,1001.56
2019-06-04T09:43:27.510Z,1001.57
2019-06-04T09:44:26.939Z,1001.56
2019-06-04T09:45:26.964Z,1001.56
2019-06-04T09:46:26.999Z,1001.56
2019-06-04T09:47:27.022Z,1001.57
2019-06-04T09:48:27.052Z,1001.57
2019-06-04T09:49:27.086Z,1001.56
2019-06-04T09:50:27.114Z,1001.56
2019-06-04T09:51:27.138Z,1001.54
2019-06-04T09:52:27.172Z,1001.58
2019-06-04T09:53:27.204Z,1001.59
2019-06-04T09:54:27.229Z,1001.62
2019-06-04T09:55:27.257Z,1001.57
2019-06-04T09:56:27.286Z,1001.58
2019-06-04T09:57:27.322Z,1001.53
2019-06-04T09:58:30.117Z,1001.57
2019-06-04T09:59:27.419Z,1001.58
2019-06-04T10:00:27.411Z,1001.57
2019-06-04T10:01:27.437Z,1001.54
2019-06-04T10:02:27.470Z,1001.53
2019-06-04T10:03:27.512Z,1001.51
2019-06-04T10:04:27.565Z,1001.52
2019-06-04T10:05:27.650Z,1001.51
2019-06-04T10:06:27.595Z,1001.52
2019-06-04T10:07:27.618Z,1001.49
2019-06-04T10:08:27.654Z,1001.48
2019-06-04T10:09:27.688Z,1001.48
2019-06-04T10:10:27.708Z,1001.5
2019-06-04T10:11:27.743Z,1001.47
2019-06-04T10:12:27.772Z,1001.45
2019-06-04T10:13:27.799Z,1001.4
2019-06-04T10:14:27.842Z,1001.39
2019-06-04T10:15:27.862Z,1001.38
2019-06-04T10:16:27.898Z,1001.35
2019-06-04T10:17:27.922Z,1001.36
2019-06-04T10:18:27.958Z,1001.34
2019-06-04T10:19:29.309Z,1001.33
2019-06-04T10:20:28.020Z,1001.33
2019-06-04T10:21:28.052Z,1001.32
2019-06-04T10:22:28.086Z,1001.31
2019-06-04T10:23:28.115Z,1001.27
2019-06-04T10:24:28.790Z,1001.27
2019-06-04T10:25:28.177Z,1001.28
2019-06-04T10:26:28.207Z,1001.27
2019-06-04T10:27:28.234Z,1001.27
2019-06-04T10:28:28.281Z,1001.21
2019-06-04T10:29:28.295Z,1001.22
2019-06-04T10:30:28.331Z,1001.21
2019-06-04T10:31:28.357Z,1001.22
2019-06-04T10:32:28.388Z,1001.22
2019-06-04T10:33:28.430Z,1001.19
2019-06-04T10:34:28.453Z,1001.17
2019-06-04T10:35:28.487Z,1001.16
2019-06-04T10:36:28.516Z,1001.2
2019-06-04T10:37:28.554Z,1001.16
2019-06-04T10:38:29.550Z,1001.18
2019-06-04T10:39:28.617Z,1001.19
2019-06-04T10:40:28.648Z,1001.17
2019-06-04T10:41:28.677Z,1001.18
2019-06-04T10:42:28.706Z,1001.18
2019-06-04T10:43:28.742Z,1001.11
2019-06-04T10:44:28.774Z,1001.13
2019-06-04T10:45:28.807Z,1001.14
2019-06-04T10:46:28.889Z,1001.11
2019-06-04T10:47:28.867Z,1001.11
2019-06-04T10:48:29.094Z,1001.12
2019-06-04T10:49:28.934Z,1001.08
2019-06-04T10:50:28.969Z,1001.08
2019-06-04T10:51:28.999Z,1001.1
2019-06-04T10:52:29.030Z,1001.07
2019-06-04T10:53:29.061Z,1001.06
2019-06-04T10:54:29.098Z,1001.03
2019-06-04T10:55:29.133Z,1001
2019-06-04T10:56:29.158Z,1000.99
2019-06-04T10:57:29.195Z,1001.02
2019-06-04T10:58:29.224Z,1000.98
2019-06-04T10:59:29.262Z,1001.01
2019-06-04T11:00:32.499Z,1000.97
2019-06-04T11:01:29.326Z,1000.98
2019-06-04T11:02:29.361Z,1000.98
2019-06-04T11:03:29.388Z,1000.96
2019-06-04T11:04:29.430Z,1000.98
2019-06-04T11:05:29.456Z,1000.97
2019-06-04T11:06:29.493Z,1000.93
2019-06-04T11:07:29.519Z,1000.91
2019-06-04T11:08:45.881Z,1000.92
2019-06-04T11:09:29.591Z,1000.89
2019-06-04T11:10:29.621Z,1000.94
2019-06-04T11:11:29.655Z,1000.93
2019-06-04T11:12:29.693Z,1000.87
2019-06-04T11:13:29.723Z,1000.9
2019-06-04T11:14:29.757Z,1000.87
2019-06-04T11:15:29.793Z,1000.85
2019-06-04T11:16:29.819Z,1000.85
2019-06-04T11:17:29.871Z,1000.85
2019-06-04T11:18:29.895Z,1000.83
2019-06-04T11:19:29.926Z,1000.83
2019-06-04T11:20:29.960Z,1000.81
2019-06-04T11:21:39.073Z,1000.83
2019-06-04T11:22:30.019Z,1000.79
2019-06-04T11:23:30.066Z,1000.83
2019-06-04T11:24:30.088Z,1000.81
2019-06-04T11:25:30.123Z,1000.8
2019-06-04T11:26:31.595Z,1000.77
2019-06-04T11:27:30.195Z,1000.81
2019-06-04T11:28:30.230Z,1000.79
2019-06-04T11:29:30.264Z,1000.76
2019-06-04T11:30:30.292Z,1000.77
2019-06-04T11:31:30.346Z,1000.73
2019-06-04T11:32:30.366Z,1000.77
2019-06-04T11:33:30.410Z,1000.74
2019-06-04T11:34:30.429Z,1000.71
2019-06-04T11:35:30.467Z,1000.74
2019-06-04T11:36:30.505Z,1000.72
2019-06-04T11:37:30.537Z,1000.69
2019-06-04T11:38:30.566Z,1000.66
2019-06-04T11:39:30.601Z,1000.65
2019-06-04T11:40:30.708Z,1000.63
2019-06-04T11:41:30.674Z,1000.58
2019-06-04T11:42:30.711Z,1000.56
2019-06-04T11:43:30.794Z,1000.55
2019-06-04T11:44:30.774Z,1000.53
2019-06-04T11:45:30.813Z,1000.57
2019-06-04T11:46:30.848Z,1000.55
2019-06-04T11:47:30.884Z,1000.54
2019-06-04T11:48:30.921Z,1000.54
2019-06-04T11:49:30.949Z,1000.52
2019-06-04T11:50:31.023Z,1000.5
2019-06-04T11:51:31.023Z,1000.48
2019-06-04T11:52:31.053Z,1000.47
2019-06-04T11:53:33.630Z,1000.46
2019-06-04T11:54:31.125Z,1000.42
2019-06-04T11:55:31.195Z,1000.42
2019-06-04T11:56:31.193Z,1000.43
2019-06-04T11:57:31.304Z,1000.4
2019-06-04T11:58:31.266Z,1000.41
2019-06-04T11:59:31.298Z,1000.4
2019-06-04T12:00:31.351Z,1000.41
2019-06-04T12:01:31.372Z,1000.39
2019-06-04T12:02:31.408Z,1000.38
2019-06-04T12:03:31.441Z,1000.36
2019-06-04T12:04:31.488Z,1000.35
2019-06-04T12:05:31.522Z,1000.33
2019-06-04T12:06:31.560Z,1000.36
2019-06-04T12:07:31.586Z,1000.32
2019-06-04T12:08:31.630Z,1000.33